createdAt,value
2018-10-19T00:00:03.533Z,41.37
2018-10-19T00:02:32.080Z,43.63
2018-10-19T00:05:00.694Z,41.20
2018-10-19T00:07:29.200Z,42.27
2018-10-19T00:09:58.101Z,39.17
2018-10-19T00:12:26.648Z,41.33
2018-10-19T00:14:55.234Z,42.77
2018-10-19T00:17:23.849Z,40.90
2018-10-19T00:19:52.452Z,39.83
2018-10-19T00:22:20.991Z,44.43
2018-10-19T00:24:49.561Z,41.57
2018-10-19T00:27:18.126Z,41.70
2018-10-19T00:29:46.704Z,43.40
2018-10-19T00:32:15.248Z,44.13
2018-10-19T00:34:43.828Z,38.80
2018-10-19T00:37:12.363Z,40.20
2018-10-19T00:39:40.883Z,39.87
2018-10-19T00:42:09.457Z,38.67
2018-10-19T00:44:37.992Z,42.67
2018-10-19T00:47:06.628Z,43.60
2018-10-19T00:49:35.172Z,40.50
2018-10-19T00:52:03.756Z,39.30
2018-10-19T00:54:32.300Z,39.50
2018-10-19T00:57:00.921Z,43.53
2018-10-19T00:59:29.438Z,37.93
2018-10-19T01:01:58.029Z,34.87
2018-10-19T01:04:26.572Z,37.00
2018-10-19T01:06:55.137Z,34.20
2018-10-19T01:09:23.681Z,37.17
2018-10-19T01:11:52.273Z,35.23
2018-10-19T01:14:20.817Z,38.30
2018-10-19T01:16:49.385Z,35.50
2018-10-19T01:19:17.952Z,33.90
2018-10-19T01:21:46.528Z,34.60
2018-10-19T01:24:15.091Z,34.50
2018-10-19T01:26:43.676Z,37.73
2018-10-19T01:29:12.225Z,33.77
2018-10-19T01:31:41.604Z,36.33
2018-10-19T01:34:10.180Z,38.03
2018-10-19T01:36:43.373Z,37.77
2018-10-19T01:39:12.583Z,35.53
2018-10-19T01:41:41.708Z,35.67
2018-10-19T01:44:10.826Z,33.73
2018-10-19T01:46:43.516Z,34.40
2018-10-19T01:49:12.034Z,33.47
2018-10-19T01:51:40.594Z,36.10
2018-10-19T01:54:09.108Z,33.17
2018-10-19T01:56:37.665Z,29.10
2018-10-19T01:59:06.552Z,29.30
2018-10-19T02:01:35.100Z,24.67
2018-10-19T02:04:03.642Z,28.47
2018-10-19T02:06:32.414Z,27.57
2018-10-19T02:09:00.968Z,20.90
2018-10-19T02:11:29.633Z,23.27
2018-10-19T02:13:58.157Z,21.73
2018-10-19T02:16:26.736Z,22.63
2018-10-19T02:18:55.293Z,21.63
2018-10-19T02:21:23.833Z,24.47
2018-10-19T02:23:52.365Z,24.80
2018-10-19T02:26:20.933Z,24.17
2018-10-19T02:28:49.455Z,24.90
2018-10-19T02:31:18.014Z,25.00
2018-10-19T02:33:46.528Z,25.47
2018-10-19T02:36:15.044Z,27.40
2018-10-19T02:38:43.593Z,26.13
2018-10-19T02:41:12.198Z,25.07
2018-10-19T02:43:40.692Z,28.07
2018-10-19T02:46:09.213Z,28.97
2018-10-19T02:48:37.765Z,25.60
2018-10-19T02:51:06.333Z,29.57
2018-10-19T02:53:35.316Z,26.80
2018-10-19T02:56:03.839Z,27.33
2018-10-19T02:58:32.746Z,30.03
2018-10-19T03:01:01.263Z,30.77
2018-10-19T03:03:29.813Z,32.07
2018-10-19T03:05:58.329Z,30.10
2018-10-19T03:08:26.878Z,28.30
2018-10-19T03:10:55.409Z,25.90
2018-10-19T03:13:24.322Z,24.80
2018-10-19T03:15:52.839Z,25.63
2018-10-19T03:18:21.379Z,24.83
2018-10-19T03:20:50.040Z,25.33
2018-10-19T03:23:18.633Z,23.67
2018-10-19T03:25:47.183Z,25.40
2018-10-19T03:28:15.789Z,25.10
2018-10-19T03:30:44.417Z,26.17
2018-10-19T03:33:13.073Z,23.37
2018-10-19T03:35:41.628Z,17.63
2018-10-19T03:38:10.212Z,15.73
2018-10-19T03:40:39.007Z,17.93
2018-10-19T03:43:07.600Z,18.03
2018-10-19T03:45:36.449Z,19.53
2018-10-19T03:48:05.305Z,17.33
2018-10-19T03:50:33.881Z,16.97
2018-10-19T03:53:02.913Z,18.37
2018-10-19T03:55:31.453Z,18.37
2018-10-19T03:58:00.057Z,19.67
2018-10-19T04:00:28.616Z,19.60
2018-10-19T04:02:57.242Z,21.87
2018-10-19T04:05:26.132Z,19.27
2018-10-19T04:07:54.749Z,22.80
2018-10-19T04:10:23.397Z,20.33
2018-10-19T04:12:51.985Z,22.43
2018-10-19T04:15:20.557Z,24.87
2018-10-19T04:17:50.204Z,20.50
2018-10-19T04:20:19.234Z,21.33
2018-10-19T04:22:47.860Z,22.97
2018-10-19T04:25:17.131Z,22.73
2018-10-19T04:27:46.181Z,21.20
2018-10-19T04:30:14.713Z,21.70
2018-10-19T04:32:43.273Z,20.43
2018-10-19T04:35:12.424Z,20.73
2018-10-19T04:37:40.997Z,22.37
2018-10-19T04:40:18.705Z,23.23
2018-10-19T04:42:47.621Z,22.17
2018-10-19T04:45:16.842Z,22.43
2018-10-19T04:47:45.673Z,22.37
2018-10-19T04:50:14.273Z,18.37
2018-10-19T04:52:42.860Z,20.27
2018-10-19T04:55:24.906Z,21.77
2018-10-19T04:57:53.517Z,21.17
2018-10-19T05:00:22.784Z,20.27
2018-10-19T05:02:51.938Z,26.00
2018-10-19T05:05:21.027Z,21.10
2018-10-19T05:07:49.437Z,23.20
2018-10-19T05:10:18.037Z,24.10
2018-10-19T05:12:46.652Z,22.70
2018-10-19T05:15:15.250Z,19.70
2018-10-19T05:17:46.259Z,22.67
2018-10-19T05:20:15.168Z,23.47
2018-10-19T05:22:43.642Z,23.13
2018-10-19T05:25:13.383Z,20.40
2018-10-19T05:27:45.340Z,21.67
2018-10-19T05:30:14.240Z,21.90
2018-10-19T05:32:43.323Z,25.47
2018-10-19T05:35:11.955Z,24.13
2018-10-19T05:37:41.312Z,25.70
2018-10-19T05:40:11.048Z,26.63
2018-10-19T05:42:40.018Z,25.07
2018-10-19T05:45:09.957Z,25.23
2018-10-19T05:47:38.488Z,29.10
2018-10-19T05:50:08.397Z,23.83
2018-10-19T05:52:37.220Z,27.20
2018-10-19T05:55:05.853Z,26.43
2018-10-19T05:57:34.577Z,47.87
2018-10-19T06:00:03.428Z,28.07
2018-10-19T06:02:32.627Z,25.00
2018-10-19T06:05:01.229Z,23.30
2018-10-19T06:07:29.758Z,25.07
2018-10-19T06:09:58.429Z,23.57
2018-10-19T06:12:26.944Z,22.57
2018-10-19T06:14:55.560Z,23.17
2018-10-19T06:17:24.148Z,22.77
2018-10-19T06:19:52.768Z,22.93
2018-10-19T06:22:21.328Z,23.23
2018-10-19T06:24:49.924Z,22.63
2018-10-19T06:27:18.472Z,24.63
2018-10-19T06:29:47.114Z,21.70
2018-10-19T06:32:15.694Z,22.00
2018-10-19T06:34:44.322Z,22.73
2018-10-19T06:37:12.885Z,22.03
2018-10-19T06:39:41.436Z,21.77
2018-10-19T06:42:10.032Z,20.60
2018-10-19T06:44:38.597Z,21.13
2018-10-19T06:47:07.311Z,22.07
2018-10-19T06:49:35.955Z,22.03
2018-10-19T06:52:04.740Z,23.27
2018-10-19T06:54:33.401Z,23.17
2018-10-19T06:57:02.158Z,22.83
2018-10-19T06:59:31.849Z,24.17
2018-10-19T07:02:00.508Z,23.17
2018-10-19T07:04:29.209Z,22.70
2018-10-19T07:06:57.877Z,22.20
2018-10-19T07:09:26.672Z,22.20
2018-10-19T07:11:55.398Z,22.90
2018-10-19T07:14:24.141Z,21.77
2018-10-19T07:16:52.919Z,23.47
2018-10-19T07:19:21.686Z,23.70
2018-10-19T07:21:52.881Z,21.80
2018-10-19T07:24:21.680Z,20.57
2018-10-19T07:26:50.413Z,21.37
2018-10-19T07:29:19.289Z,20.30
2018-10-19T07:31:47.965Z,20.90
2018-10-19T07:34:16.666Z,21.77
2018-10-19T07:36:45.393Z,20.63
2018-10-19T07:39:14.117Z,20.73
2018-10-19T07:41:42.882Z,20.20
2018-10-19T07:44:11.794Z,20.00
2018-10-19T07:46:40.430Z,19.90
2018-10-19T07:49:09.125Z,22.47
2018-10-19T07:51:37.977Z,23.13
2018-10-19T07:54:06.700Z,20.93
2018-10-19T07:56:36.521Z,20.33
2018-10-19T07:59:06.424Z,21.50
2018-10-19T08:01:35.057Z,21.77
2018-10-19T08:04:03.864Z,23.17
2018-10-19T08:06:32.668Z,24.03
2018-10-19T08:09:02.009Z,24.53
2018-10-19T08:11:30.736Z,26.63
2018-10-19T08:13:59.511Z,26.90
2018-10-19T08:16:28.134Z,24.77
2018-10-19T08:18:56.815Z,27.67
2018-10-19T08:21:25.536Z,29.40
2018-10-19T08:23:54.284Z,30.00
2018-10-19T08:26:23.013Z,30.47
2018-10-19T08:28:51.684Z,33.47
2018-10-19T08:31:20.360Z,34.67
2018-10-19T08:33:49.060Z,33.40
2018-10-19T08:36:18.780Z,33.10
2018-10-19T08:38:47.452Z,36.97
2018-10-19T08:41:16.184Z,36.33
2018-10-19T08:43:44.805Z,37.07
2018-10-19T08:46:18.825Z,38.40
2018-10-19T08:48:47.481Z,37.57
2018-10-19T08:51:16.352Z,38.10
2018-10-19T08:53:45.359Z,38.07
2018-10-19T08:56:14.128Z,38.20
2018-10-19T08:58:42.846Z,39.60
2018-10-19T09:01:11.463Z,40.07
2018-10-19T09:03:40.208Z,39.70
2018-10-19T09:06:09.060Z,39.50
2018-10-19T09:08:37.766Z,39.97
2018-10-19T09:11:06.588Z,42.37
2018-10-19T09:13:35.329Z,41.97
2018-10-19T09:16:03.984Z,41.00
2018-10-19T09:18:32.678Z,42.97
2018-10-19T09:21:01.556Z,42.20
2018-10-19T09:23:30.300Z,39.77
2018-10-19T09:25:59.036Z,42.10
2018-10-19T09:28:27.708Z,41.77
2018-10-19T09:30:56.454Z,40.93
2018-10-19T09:33:25.109Z,42.60
2018-10-19T09:35:53.783Z,41.20
2018-10-19T09:38:22.509Z,43.30
2018-10-19T09:40:51.300Z,43.93
2018-10-19T09:43:19.941Z,43.40
2018-10-19T09:45:48.564Z,43.03
2018-10-19T09:48:17.377Z,39.20
2018-10-19T09:50:46.075Z,40.70
2018-10-19T09:53:14.841Z,42.97
2018-10-19T09:55:43.529Z,40.97
2018-10-19T09:58:12.304Z,41.50
2018-10-19T10:00:46.173Z,41.83
2018-10-19T10:03:14.921Z,41.27
2018-10-19T10:05:43.934Z,40.97
2018-10-19T10:08:12.574Z,42.27
2018-10-19T10:10:41.142Z,42.00
2018-10-19T10:13:09.802Z,43.57
2018-10-19T10:15:38.397Z,38.77
2018-10-19T10:18:07.019Z,41.57
2018-10-19T10:20:35.773Z,41.73
2018-10-19T10:23:04.644Z,41.63
2018-10-19T10:25:33.230Z,38.83
2018-10-19T10:28:01.862Z,40.17
2018-10-19T10:30:30.429Z,41.07
2018-10-19T10:32:59.040Z,38.70
2018-10-19T10:35:28.081Z,40.53
2018-10-19T10:37:56.684Z,38.60
2018-10-19T10:40:25.271Z,39.40
2018-10-19T10:42:53.876Z,38.50
2018-10-19T10:45:22.665Z,39.83
2018-10-19T10:47:51.244Z,40.47
2018-10-19T10:50:19.856Z,37.77
2018-10-19T10:52:48.693Z,38.10
2018-10-19T10:55:18.735Z,38.63
2018-10-19T10:57:48.129Z,38.53
2018-10-19T11:00:16.910Z,38.20
2018-10-19T11:02:47.070Z,38.07
2018-10-19T11:05:15.728Z,39.33
2018-10-19T11:07:46.003Z,36.63
2018-10-19T11:10:15.001Z,38.20
2018-10-19T11:12:44.401Z,34.73
2018-10-19T11:15:13.344Z,35.90
2018-10-19T11:17:41.940Z,36.07
2018-10-19T11:20:11.273Z,35.83
2018-10-19T11:22:39.904Z,38.17
2018-10-19T11:25:08.894Z,34.90
2018-10-19T11:27:37.696Z,36.53
2018-10-19T11:30:07.481Z,37.20
2018-10-19T11:32:36.125Z,34.17
2018-10-19T11:35:05.062Z,36.90
2018-10-19T11:37:34.595Z,36.43
2018-10-19T11:40:30.357Z,34.77
2018-10-19T11:42:58.983Z,35.33
2018-10-19T11:45:28.944Z,35.20
2018-10-19T11:47:57.513Z,34.77
2018-10-19T11:50:26.149Z,35.17
2018-10-19T11:52:55.185Z,34.33
2018-10-19T11:55:24.085Z,35.30
2018-10-19T11:57:53.084Z,34.20
2018-10-19T12:00:23.246Z,36.13
2018-10-19T12:02:52.373Z,36.30
2018-10-19T12:05:24.113Z,33.37
2018-10-19T12:07:52.888Z,35.23
2018-10-19T12:10:21.567Z,34.43
2018-10-19T12:12:51.489Z,35.17
2018-10-19T12:15:22.234Z,34.97
2018-10-19T12:17:51.912Z,34.73
2018-10-19T12:20:20.765Z,35.57
2018-10-19T12:22:51.545Z,33.03
2018-10-19T12:25:20.120Z,34.53
2018-10-19T12:27:49.671Z,33.60
2018-10-19T12:30:18.368Z,33.30
2018-10-19T12:32:46.968Z,32.67
2018-10-19T12:35:17.996Z,34.07
2018-10-19T12:37:47.336Z,34.97
2018-10-19T12:40:17.067Z,32.73
2018-10-19T12:42:45.624Z,32.37
2018-10-19T12:46:30.232Z,32.13
2018-10-19T12:48:58.782Z,32.37
2018-10-19T12:51:27.368Z,33.07
2018-10-19T12:53:56.138Z,31.83
2018-10-19T12:56:24.688Z,31.67
2018-10-19T12:58:54.105Z,35.37
2018-10-19T13:01:23.611Z,33.27
2018-10-19T13:03:52.556Z,31.60
2018-10-19T13:06:21.146Z,33.40
2018-10-19T13:08:54.148Z,32.63
2018-10-19T13:11:29.628Z,33.50
2018-10-19T13:14:03.563Z,31.83
2018-10-19T13:16:46.763Z,30.97
2018-10-19T13:22:05.317Z,30.67
2018-10-19T13:24:42.135Z,33.70
2018-10-19T13:27:19.329Z,30.00
2018-10-19T13:29:57.638Z,30.27
2018-10-19T13:32:37.343Z,30.93
2018-10-19T13:35:12.705Z,31.23
2018-10-19T13:37:48.392Z,31.10
2018-10-19T13:40:27.751Z,28.53
2018-10-19T13:43:09.377Z,29.33
2018-10-19T13:45:44.425Z,30.50
2018-10-19T13:48:20.164Z,30.37
2018-10-19T13:50:56.434Z,30.80
2018-10-19T13:53:31.560Z,28.87
2018-10-19T13:56:10.614Z,30.50
2018-10-19T13:58:46.772Z,28.43
2018-10-19T14:01:26.990Z,29.13
2018-10-19T14:04:04.228Z,28.83
2018-10-19T14:06:48.170Z,27.20
2018-10-19T14:09:29.196Z,27.60
2018-10-19T14:12:10.731Z,26.80
2018-10-19T14:14:46.055Z,28.23
2018-10-19T14:17:21.577Z,28.90
2018-10-19T14:20:01.013Z,26.90
2018-10-19T14:22:39.323Z,27.57
2018-10-19T14:25:17.360Z,27.57
2018-10-19T14:27:57.941Z,28.10
2018-10-19T14:30:30.365Z,27.53
2018-10-19T14:33:01.755Z,27.40
2018-10-19T14:35:30.535Z,28.03
2018-10-19T14:38:02.183Z,28.20
2018-10-19T14:40:33.551Z,28.03
2018-10-19T14:43:09.380Z,29.27
2018-10-19T14:45:39.053Z,30.13
2018-10-19T14:48:10.694Z,28.67
2018-10-19T14:50:44.407Z,27.27
2018-10-19T14:53:17.374Z,28.13
2018-10-19T14:55:47.756Z,27.20
2018-10-19T14:58:16.246Z,27.67
2018-10-19T15:00:53.595Z,28.10
2018-10-19T15:03:26.615Z,27.63
2018-10-19T15:05:56.405Z,28.50
2018-10-19T15:08:26.953Z,27.70
2018-10-19T15:11:04.306Z,27.67
2018-10-19T15:13:42.769Z,26.87
2018-10-19T15:16:18.473Z,26.57
2018-10-19T15:18:54.131Z,25.17
2018-10-19T15:21:28.805Z,25.90
2018-10-19T15:24:04.608Z,27.40
2018-10-19T15:26:39.363Z,26.37
2018-10-19T15:29:16.657Z,26.43
2018-10-19T15:31:50.595Z,27.20
2018-10-19T15:34:28.437Z,28.47
2018-10-19T15:37:02.635Z,28.57
2018-10-19T15:39:39.602Z,31.00
2018-10-19T15:42:15.036Z,28.67
2018-10-19T15:44:48.916Z,29.93
2018-10-19T15:47:28.032Z,29.13
2018-10-19T15:50:05.220Z,28.67
2018-10-19T15:52:45.273Z,28.03
2018-10-19T15:55:20.997Z,28.27
2018-10-19T15:57:55.479Z,27.53
2018-10-19T16:00:38.760Z,26.90
2018-10-19T16:03:14.219Z,27.07
2018-10-19T16:05:52.900Z,25.07
2018-10-19T16:08:34.125Z,26.13
2018-10-19T16:11:09.154Z,25.73
2018-10-19T16:13:43.077Z,27.57
2018-10-19T16:16:11.719Z,24.97
2018-10-19T16:18:40.289Z,26.33
2018-10-19T16:21:08.912Z,28.53
2018-10-19T16:23:37.577Z,27.60
2018-10-19T16:26:06.234Z,27.97
2018-10-19T16:28:34.927Z,29.70
2018-10-19T16:31:03.421Z,25.47
2018-10-19T16:33:32.026Z,25.87
2018-10-19T16:36:00.870Z,24.43
2018-10-19T16:38:29.439Z,25.80
2018-10-19T16:40:57.992Z,26.57
2018-10-19T16:43:26.601Z,27.60
2018-10-19T16:45:55.208Z,31.40
2018-10-19T16:48:23.821Z,29.77
2018-10-19T16:50:52.398Z,31.90
2018-10-19T16:53:21.001Z,30.43
2018-10-19T16:55:51.372Z,28.63
2018-10-19T16:58:22.949Z,27.90
2018-10-19T17:00:52.769Z,28.80
2018-10-19T17:03:22.608Z,29.50
2018-10-19T17:05:51.236Z,28.23
2018-10-19T17:08:19.842Z,27.27
2018-10-19T17:10:48.417Z,27.73
2018-10-19T17:13:17.830Z,25.23
2018-10-19T17:15:46.396Z,25.70
2018-10-19T17:18:15.125Z,28.73
2018-10-19T17:20:43.730Z,29.07
2018-10-19T17:23:12.300Z,32.53
2018-10-19T17:25:40.905Z,29.03
2018-10-19T17:28:09.489Z,31.53
2018-10-19T17:30:39.742Z,32.23
2018-10-19T17:33:08.338Z,28.53
2018-10-19T17:35:37.079Z,33.60
2018-10-19T17:38:06.165Z,34.73
2018-10-19T17:40:34.745Z,32.07
2018-10-19T17:43:03.347Z,45.03
2018-10-19T17:45:31.929Z,42.43
2018-10-19T17:48:00.523Z,35.53
2018-10-19T17:50:29.538Z,35.97
2018-10-19T17:52:58.163Z,36.20
2018-10-19T17:55:26.713Z,34.93
2018-10-19T17:57:55.278Z,38.67
2018-10-19T18:00:23.872Z,41.53
2018-10-19T18:02:52.467Z,43.43
2018-10-19T18:05:21.096Z,40.77
2018-10-19T18:07:50.680Z,42.00
2018-10-19T18:10:19.473Z,42.80
2018-10-19T18:12:53.106Z,47.50
2018-10-19T18:15:26.870Z,45.97
2018-10-19T18:17:58.050Z,42.40
2018-10-19T18:20:26.737Z,41.67
2018-10-19T18:22:56.381Z,41.27
2018-10-19T18:25:25.011Z,38.23
2018-10-19T18:27:53.583Z,38.87
2018-10-19T18:30:22.181Z,38.13
2018-10-19T18:32:50.743Z,38.17
2018-10-19T18:35:19.456Z,39.37
2018-10-19T18:37:47.985Z,40.83
2018-10-19T18:40:16.574Z,38.10
2018-10-19T18:42:45.137Z,36.23
2018-10-19T18:45:13.750Z,34.37
2018-10-19T18:47:43.922Z,39.27
2018-10-19T18:50:12.558Z,39.37
2018-10-19T18:52:41.177Z,38.67
2018-10-19T18:55:09.845Z,37.43
2018-10-19T18:57:38.416Z,35.20
2018-10-19T19:00:09.133Z,35.63
2018-10-19T19:02:37.985Z,32.93
2018-10-19T19:05:10.155Z,35.00
2018-10-19T19:07:39.055Z,36.00
2018-10-19T19:10:13.029Z,37.33
2018-10-19T19:13:10.651Z,37.23
2018-10-19T19:18:50.363Z,33.67
2018-10-19T19:21:36.603Z,35.00
2018-10-19T19:25:14.216Z,35.70
2018-10-19T19:27:53.013Z,35.40
2018-10-19T19:30:30.382Z,35.83
2018-10-19T19:33:11.242Z,34.60
2018-10-19T19:35:48.300Z,34.13
2018-10-19T19:38:21.992Z,35.13
2018-10-19T19:41:00.331Z,33.73
2018-10-19T19:43:33.741Z,33.17
2018-10-19T19:46:07.731Z,37.70
2018-10-19T19:48:46.939Z,36.10
2018-10-19T19:51:23.486Z,36.53
2018-10-19T19:53:55.903Z,36.03
2018-10-19T19:56:24.597Z,36.20
2018-10-19T19:58:53.160Z,33.60
2018-10-19T20:01:21.713Z,31.43
2018-10-19T20:03:50.259Z,33.80
2018-10-19T20:06:19.467Z,32.37
2018-10-19T20:08:48.817Z,33.60
2018-10-19T20:11:17.389Z,34.43
2018-10-19T20:13:45.929Z,34.63
2018-10-19T20:16:14.710Z,33.47
2018-10-19T20:18:44.795Z,35.23
2018-10-19T20:21:13.497Z,35.17
2018-10-19T20:23:42.077Z,37.13
2018-10-19T20:26:10.682Z,36.00
2018-10-19T20:28:39.601Z,35.23
2018-10-19T20:31:08.194Z,36.07
2018-10-19T20:33:38.552Z,35.43
2018-10-19T20:36:07.318Z,34.00
2018-10-19T20:38:35.933Z,37.03
2018-10-19T20:41:04.741Z,34.67
2018-10-19T20:43:33.264Z,38.73
2018-10-19T20:46:08.478Z,36.77
2018-10-19T20:48:41.342Z,37.13
2018-10-19T20:51:13.300Z,36.57
2018-10-19T20:53:49.306Z,35.50
2018-10-19T20:56:23.102Z,37.50
2018-10-19T20:58:55.188Z,37.13
2018-10-19T21:01:27.813Z,35.43
2018-10-19T21:03:57.961Z,35.40
2018-10-19T21:06:28.552Z,34.93
2018-10-19T21:08:58.524Z,35.27
2018-10-19T21:11:29.881Z,37.17
2018-10-19T21:14:01.280Z,34.80
2018-10-19T21:16:37.319Z,34.93
2018-10-19T21:19:10.460Z,37.13
2018-10-19T21:21:41.668Z,37.47
2018-10-19T21:24:15.591Z,40.03
2018-10-19T21:26:44.196Z,38.67
2018-10-19T21:29:17.640Z,38.77
2018-10-19T21:31:48.682Z,38.67
2018-10-19T21:34:40.361Z,36.70
2018-10-19T21:37:16.177Z,39.10
2018-10-19T21:39:53.498Z,37.90
2018-10-19T21:42:26.731Z,38.47
2018-10-19T21:45:09.384Z,40.13
2018-10-19T21:47:41.853Z,38.23
2018-10-19T21:50:11.625Z,37.03
2018-10-19T21:52:41.333Z,37.67
2018-10-19T21:55:13.389Z,37.83
2018-10-19T21:57:49.048Z,39.33
2018-10-19T22:00:19.265Z,36.93
2018-10-19T22:02:48.964Z,36.83
2018-10-19T22:05:18.576Z,37.43
2018-10-19T22:07:48.111Z,37.07
2018-10-19T22:10:18.899Z,37.37
2018-10-19T22:12:48.468Z,36.50
2018-10-19T22:15:17.744Z,38.73
2018-10-19T22:17:47.250Z,37.47
2018-10-19T22:20:16.792Z,38.17
2018-10-19T22:22:46.856Z,37.90
2018-10-19T22:25:17.060Z,37.73
2018-10-19T22:27:46.652Z,39.53
2018-10-19T22:30:16.056Z,40.13
2018-10-19T22:32:45.816Z,40.33
2018-10-19T22:35:14.437Z,37.83
2018-10-19T22:37:43.017Z,39.47
2018-10-19T22:40:11.595Z,36.70
2018-10-19T22:42:40.188Z,39.43
2018-10-19T22:45:08.778Z,36.90
2018-10-19T22:47:37.388Z,38.27
2018-10-19T22:50:05.996Z,36.83
2018-10-19T22:52:34.977Z,38.10
2018-10-19T22:55:03.943Z,38.17
2018-10-19T22:57:32.541Z,39.13
2018-10-19T23:00:01.121Z,38.87
2018-10-19T23:02:29.743Z,38.17
2018-10-19T23:04:58.394Z,39.93
2018-10-19T23:07:27.281Z,36.97
2018-10-19T23:09:55.902Z,32.43
2018-10-19T23:12:24.469Z,32.87
2018-10-19T23:14:53.297Z,39.27
2018-10-19T23:17:21.855Z,38.23
2018-10-19T23:19:50.476Z,41.23
2018-10-19T23:22:19.054Z,41.60
2018-10-19T23:24:47.637Z,40.70
2018-10-19T23:27:16.188Z,45.73
2018-10-19T23:29:44.785Z,43.47
2018-10-19T23:32:13.344Z,39.27
2018-10-19T23:34:48.608Z,44.33
2018-10-19T23:37:17.169Z,40.63
2018-10-19T23:39:45.768Z,38.87
2018-10-19T23:42:14.621Z,38.83
2018-10-19T23:44:43.212Z,39.97
2018-10-19T23:47:11.864Z,38.93
2018-10-19T23:49:40.407Z,44.63
2018-10-19T23:52:08.957Z,46.80
2018-10-19T23:54:37.557Z,42.37
2018-10-19T23:57:06.185Z,45.23
2018-10-19T23:59:34.786Z,41.70
